Flight Track Log - Related Links

Times and Time Zones

All times are in EDT time to prevent confusion due to time zone crossing. See the CTN676 flight status page for this flight to view local times or setup timezone preferences in your user account.

Time Position Orientation Groundspeed Altitude Reporting Facility
EDT Latitude Longitude Course Direction KTS MPH feet Rate Location/Type
Tue 04:53:15 AM 45.5919 16.0002 198° South  Level Estimated
Tue 04:54:15 AM 45.5455 15.9792 198° South  Level Estimated
Tue 04:55:15 AM 45.4990 15.9583 198° South  Level Estimated
Tue 04:56:15 AM 45.4525 15.9373 198° South  Level Estimated
Tue 04:57:15 AM 45.4060 15.9164 198° South  Level Estimated
Tue 04:58:15 AM 45.3595 15.8955 197° South  Level Estimated
Tue 04:59:15 AM 45.3130 15.8747 197° South  Level Estimated
Tue 05:00:15 AM 45.2666 15.8539 197° South  Level Estimated
Tue 05:01:15 AM 45.2201 15.8331 197° South  Level Estimated
Tue 05:02:15 AM 45.1736 15.8124 197° South  Level Estimated
Tue 05:03:15 AM 45.1271 15.7916 197° South  Level Estimated
Tue 05:04:15 AM 45.0806 15.7710 197° South  Level Estimated
Tue 05:05:15 AM 45.0340 15.7503 197° South  Level Estimated
Tue 05:06:15 AM 44.9875 15.7297 197° South  Level Estimated
Tue 05:07:15 AM 44.9410 15.7092 197° South  Level Estimated
Tue 05:08:15 AM 44.8945 15.6886 197° South  Level Estimated
Tue 05:09:15 AM 44.8480 15.6681 197° South  Level Estimated
Tue 05:10:15 AM 44.8014 15.6476 197° South  Level Estimated
Tue 05:11:15 AM 44.7549 15.6272 197° South  Level Estimated
Tue 05:12:15 AM 44.7084 15.6068 197° South  Level Estimated
Tue 05:13:15 AM 44.6618 15.5864 197° South  Level Estimated
Tue 05:14:15 AM 44.6153 15.5661 197° South  Level Estimated
Tue 05:15:15 AM 44.5687 15.5458 197° South  Level Estimated
Tue 05:16:15 AM 44.5222 15.5255 197° South  Level Estimated
Tue 05:17:15 AM 44.4756 15.5052 197° South  Level Estimated
Tue 05:18:15 AM 44.4291 15.4850 197° South  Level Estimated
Tue 05:19:15 AM 44.3825 15.4649 197° South  Level Estimated
Tue 05:20:15 AM 44.3359 15.4447 197° South  Level Estimated
Tue 05:21:15 AM 44.2894 15.4246 197° South  Level Estimated
Tue 05:22:15 AM 44.2428 15.4045 197° South  Level Estimated
Tue 05:23:15 AM 44.1962 15.3845 197° South  Level Estimated
Tue 05:24:15 AM 44.1496 15.3645 197° South  Level Estimated

Login

Don't have an account? Register now (free) for customized features, flight alerts, and more!